aviador You're here:

KSIK Decoded Metar

in
Report Time2018-07-19 21:15:00
UTC Time2018-07-19 21:02:13
Flight Rules vfr VFR
Wind170° at 03 kt
W.Decomp.*RWY 20: 2.6 kt HW 1.5 kt LCW
W.Rank170° ranks 7
Current wind is below 170° avg. (6.0)
Visibility9999 m
Phenomena:N/A
Clouds:Scattered 035 Hf
Scattered 060 Hf
Expected CloudBase > 3,600 ft AGL from Temp-Dew spread
CeilingNone
Temp32°C
Dew Point23°C (59% RH)
Heat Index36.8°C
QNH1011 hPa
Raw Report
KSIK 192115Z AUTO 17003KT 10SM SCT035 SCT060 32/23 A2986 RMK
AO2=

Extra information for KSIK:More info

Social comments